createdAt,value
2022-08-17T00:02:26.651Z,11.04
2022-08-17T00:04:55.260Z,10.95
2022-08-17T00:07:22.902Z,10.95
2022-08-17T00:09:49.868Z,10.91
2022-08-17T00:12:43.395Z,10.91
2022-08-17T00:15:05.382Z,10.79
2022-08-17T00:17:32.269Z,10.76
2022-08-17T00:20:00.551Z,10.66
2022-08-17T00:22:34.726Z,10.64
2022-08-17T00:25:08.817Z,10.56
2022-08-17T00:27:37.079Z,10.52
2022-08-17T00:30:06.904Z,10.46
2022-08-17T00:33:13.691Z,10.40
2022-08-17T00:35:33.044Z,10.34
2022-08-17T00:38:00.062Z,10.34
2022-08-17T00:40:27.092Z,10.31
2022-08-17T00:43:13.906Z,10.28
2022-08-17T00:45:42.135Z,10.17
2022-08-17T00:48:28.916Z,10.00
2022-08-17T00:51:13.607Z,9.79
2022-08-17T00:53:44.132Z,9.62
2022-08-17T00:56:24.137Z,9.39
2022-08-17T00:58:54.607Z,9.28
2022-08-17T01:01:22.606Z,9.16
2022-08-17T01:03:53.256Z,9.06
2022-08-17T01:06:25.332Z,8.97
2022-08-17T01:08:57.470Z,8.85
2022-08-17T01:11:25.615Z,8.74
2022-08-17T01:13:52.816Z,8.57
2022-08-17T01:16:26.987Z,8.61
2022-08-17T01:18:57.821Z,8.56
2022-08-17T01:21:37.667Z,8.50
2022-08-17T01:24:05.321Z,8.41
2022-08-17T01:26:33.508Z,8.33
2022-08-17T01:29:02.857Z,8.24
2022-08-17T01:31:35.430Z,8.18
2022-08-17T01:34:07.551Z,8.14
2022-08-17T01:36:36.090Z,8.15
2022-08-17T01:39:04.925Z,8.16
2022-08-17T01:41:32.123Z,8.21
2022-08-17T01:44:02.699Z,8.24
2022-08-17T01:46:33.695Z,8.26
2022-08-17T01:49:01.770Z,8.57
2022-08-17T01:51:33.093Z,8.43
2022-08-17T01:54:05.583Z,8.62
2022-08-17T01:56:35.035Z,8.44
2022-08-17T01:59:02.751Z,8.42
2022-08-17T02:01:31.831Z,8.41
2022-08-17T02:04:01.379Z,8.49
2022-08-17T02:06:52.603Z,8.62
2022-08-17T02:09:27.160Z,8.56
2022-08-17T02:11:59.058Z,8.60
2022-08-17T02:14:26.412Z,8.79
2022-08-17T02:16:54.010Z,8.95
2022-08-17T02:19:22.195Z,9.08
2022-08-17T02:21:52.057Z,9.15
2022-08-17T02:25:00.319Z,9.15
2022-08-17T02:27:16.156Z,9.15
2022-08-17T02:29:42.944Z,9.15
2022-08-17T02:32:27.229Z,9.16
2022-08-17T02:34:59.525Z,9.17
2022-08-17T02:37:28.205Z,9.20
2022-08-17T02:39:57.296Z,9.06
2022-08-17T02:42:34.027Z,9.01
2022-08-17T02:45:03.111Z,8.90
2022-08-17T02:47:30.316Z,8.78
2022-08-17T02:49:57.884Z,8.70
2022-08-17T02:52:43.101Z,8.74
2022-08-17T02:55:18.753Z,8.93
2022-08-17T02:57:45.907Z,8.94
2022-08-17T03:00:21.352Z,8.91
2022-08-17T03:02:49.103Z,8.95
2022-08-17T03:05:20.564Z,9.01
2022-08-17T03:07:48.124Z,9.03
2022-08-17T03:10:15.477Z,8.99
2022-08-17T03:12:43.451Z,9.09
2022-08-17T03:15:16.937Z,9.20
2022-08-17T03:17:44.456Z,9.30
2022-08-17T03:20:12.312Z,9.43
2022-08-17T03:22:42.335Z,9.49
2022-08-17T03:25:19.597Z,9.65
2022-08-17T03:27:51.402Z,9.74
2022-08-17T03:30:18.890Z,9.78
2022-08-17T03:32:51.832Z,9.80
2022-08-17T03:35:21.233Z,9.83
2022-08-17T03:37:48.123Z,9.77
2022-08-17T03:40:55.652Z,9.73
2022-08-17T03:43:15.497Z,9.74
2022-08-17T03:46:02.048Z,9.66
2022-08-17T03:48:47.630Z,9.71
2022-08-17T03:51:37.918Z,9.65
2022-08-17T03:54:23.761Z,9.62
2022-08-17T03:57:07.410Z,9.58
2022-08-17T03:59:35.670Z,9.60
2022-08-17T04:02:12.040Z,9.60
2022-08-17T04:04:39.813Z,9.58
2022-08-17T04:07:06.905Z,9.58
2022-08-17T04:09:33.743Z,9.50
2022-08-17T04:12:02.455Z,9.46
2022-08-17T04:14:51.468Z,9.40
2022-08-17T04:17:25.609Z,9.37
2022-08-17T04:19:53.437Z,9.35
2022-08-17T04:22:32.068Z,9.33
2022-08-17T04:25:02.628Z,9.37
2022-08-17T04:27:29.471Z,9.32
2022-08-17T04:29:56.407Z,9.27
2022-08-17T04:33:00.849Z,9.19
2022-08-17T04:35:10.575Z,9.10
2022-08-17T04:37:38.084Z,9.06
2022-08-17T04:40:25.941Z,8.97
2022-08-17T04:43:31.189Z,8.84
2022-08-17T04:46:01.232Z,8.65
2022-08-17T04:48:36.263Z,8.60
2022-08-17T04:51:07.389Z,8.63
2022-08-17T04:53:34.299Z,8.59
2022-08-17T04:56:01.249Z,8.63
2022-08-17T04:58:28.299Z,8.68
2022-08-17T05:00:55.299Z,8.71
2022-08-17T05:03:22.180Z,8.79
2022-08-17T05:05:49.966Z,8.66
2022-08-17T05:08:19.308Z,8.47
2022-08-17T05:10:47.838Z,8.43
2022-08-17T05:13:17.907Z,8.33
2022-08-17T05:15:47.866Z,8.46
2022-08-17T05:18:16.910Z,8.35
2022-08-17T05:20:44.475Z,8.31
2022-08-17T05:23:15.050Z,8.45
2022-08-17T05:25:47.904Z,8.49
2022-08-17T05:28:16.532Z,8.50
2022-08-17T05:30:45.050Z,8.54
2022-08-17T05:33:21.914Z,8.56
2022-08-17T05:35:51.535Z,8.48
2022-08-17T05:38:21.558Z,8.32
2022-08-17T05:40:48.804Z,8.33
2022-08-17T05:43:22.407Z,8.28
2022-08-17T05:46:12.755Z,8.24
2022-08-17T05:48:43.585Z,8.22
2022-08-17T05:51:42.481Z,8.27
2022-08-17T05:54:47.468Z,8.32
2022-08-17T05:57:17.230Z,8.41
2022-08-17T05:59:57.697Z,8.44
2022-08-17T06:02:49.033Z,8.50
2022-08-17T06:08:14.991Z,8.63
2022-08-17T06:10:52.894Z,9.02
2022-08-17T06:13:57.159Z,9.64
2022-08-17T06:16:34.506Z,10.34
2022-08-17T06:19:16.245Z,10.94
2022-08-17T06:21:46.824Z,11.61
2022-08-17T06:24:35.169Z,12.20
2022-08-17T06:27:09.238Z,13.04
2022-08-17T06:29:55.939Z,13.96
2022-08-17T06:32:23.454Z,14.66
2022-08-17T06:34:50.238Z,15.26
2022-08-17T06:37:26.040Z,15.73
2022-08-17T06:40:30.309Z,16.36
2022-08-17T06:43:34.941Z,17.10
2022-08-17T06:46:16.833Z,17.63
2022-08-17T06:48:58.989Z,18.29
2022-08-17T06:51:34.790Z,18.82
2022-08-17T06:54:20.833Z,19.34
2022-08-17T06:57:19.264Z,19.66
2022-08-17T07:00:16.726Z,20.00
2022-08-17T07:03:10.614Z,20.34
2022-08-17T07:08:50.935Z,21.02
2022-08-17T07:12:01.626Z,21.14
2022-08-17T07:14:51.894Z,21.36
2022-08-17T07:17:20.905Z,21.80
2022-08-17T07:19:50.149Z,22.28
2022-08-17T07:22:16.816Z,22.72
2022-08-17T07:24:58.751Z,23.15
2022-08-17T07:27:32.222Z,23.25
2022-08-17T07:30:28.205Z,23.38
2022-08-17T07:33:02.871Z,23.57
2022-08-17T07:35:31.336Z,23.74
2022-08-17T07:38:24.202Z,23.81
2022-08-17T07:41:06.122Z,24.07
2022-08-17T07:43:37.068Z,23.88
2022-08-17T07:46:39.970Z,24.11
2022-08-17T07:49:09.702Z,24.29
2022-08-17T07:51:44.272Z,24.37
2022-08-17T07:54:22.654Z,24.74
2022-08-17T07:56:53.089Z,24.64
2022-08-17T07:59:32.626Z,24.94
2022-08-17T08:02:06.033Z,25.14
2022-08-17T08:04:59.849Z,25.14
2022-08-17T08:07:31.729Z,24.69
2022-08-17T08:10:07.785Z,23.91
2022-08-17T08:12:45.081Z,23.33
2022-08-17T08:15:22.798Z,23.39
2022-08-17T08:17:57.658Z,22.31
2022-08-17T08:20:53.398Z,22.27
2022-08-17T08:23:33.679Z,21.40
2022-08-17T08:26:20.628Z,20.23
2022-08-17T08:28:53.007Z,20.59
2022-08-17T08:31:50.934Z,20.41
2022-08-17T08:35:01.547Z,20.26
2022-08-17T08:37:45.679Z,20.39
2022-08-17T08:40:35.718Z,20.14
2022-08-17T08:43:11.787Z,20.36
2022-08-17T08:45:59.362Z,20.24
2022-08-17T08:48:52.910Z,20.84
2022-08-17T08:51:59.689Z,21.29
2022-08-17T08:54:46.542Z,21.22
2022-08-17T08:57:34.368Z,21.17
2022-08-17T09:00:21.324Z,21.08
2022-08-17T09:03:09.518Z,20.66
2022-08-17T09:05:53.311Z,20.94
2022-08-17T09:08:39.507Z,20.72
2022-08-17T09:11:31.129Z,21.27
2022-08-17T09:14:21.219Z,21.42
2022-08-17T09:17:04.960Z,20.65
2022-08-17T09:19:46.577Z,20.63
2022-08-17T09:22:25.336Z,20.12
2022-08-17T09:24:58.569Z,19.85
2022-08-17T09:27:35.284Z,19.76
2022-08-17T09:30:08.636Z,19.84
2022-08-17T09:32:47.230Z,20.52
2022-08-17T09:35:25.299Z,20.89
2022-08-17T09:38:20.618Z,20.43
2022-08-17T09:40:57.621Z,19.75
2022-08-17T09:43:41.794Z,19.19
2022-08-17T09:46:11.616Z,18.86
2022-08-17T09:49:36.282Z,19.02
2022-08-17T09:52:10.129Z,19.74
2022-08-17T09:54:41.084Z,20.22
2022-08-17T09:57:29.143Z,20.93
2022-08-17T09:59:59.558Z,20.95
2022-08-17T10:02:55.715Z,20.71
2022-08-17T10:05:26.012Z,21.04
2022-08-17T10:08:23.479Z,20.17
2022-08-17T10:11:08.315Z,19.49
2022-08-17T10:13:41.406Z,19.91
2022-08-17T10:16:32.349Z,20.32
2022-08-17T10:19:02.282Z,20.82
2022-08-17T10:22:01.011Z,20.86
2022-08-17T10:25:23.739Z,21.21
2022-08-17T10:27:57.831Z,21.08
2022-08-17T10:30:33.558Z,20.78
2022-08-17T10:33:03.520Z,20.17
2022-08-17T10:35:49.172Z,20.24
2022-08-17T10:38:42.206Z,20.11
2022-08-17T10:41:28.580Z,19.83
2022-08-17T10:44:38.861Z,20.41
2022-08-17T10:47:16.978Z,20.54
2022-08-17T10:49:52.634Z,20.97
2022-08-17T10:52:24.960Z,21.34
2022-08-17T10:54:51.901Z,21.89
2022-08-17T10:57:28.313Z,22.15
2022-08-17T10:59:59.996Z,22.08
2022-08-17T11:02:39.753Z,21.77
2022-08-17T11:05:29.151Z,21.55
2022-08-17T11:08:05.657Z,21.30
2022-08-17T11:11:09.882Z,20.83
2022-08-17T11:13:45.450Z,21.29
2022-08-17T11:16:40.611Z,21.21
2022-08-17T11:19:34.126Z,21.03
2022-08-17T11:22:06.734Z,20.85
2022-08-17T11:24:48.174Z,20.85
2022-08-17T11:27:32.635Z,21.13
2022-08-17T11:30:03.024Z,21.37
2022-08-17T11:32:34.822Z,21.34
2022-08-17T11:35:16.347Z,21.76
2022-08-17T11:38:16.420Z,21.19
2022-08-17T11:41:09.408Z,20.90
2022-08-17T11:43:55.648Z,21.05
2022-08-17T11:47:19.033Z,21.56
2022-08-17T11:50:10.542Z,22.41
2022-08-17T11:52:39.949Z,23.15
2022-08-17T11:55:34.149Z,23.06
2022-08-17T11:58:01.970Z,22.86
2022-08-17T12:00:52.020Z,22.79
2022-08-17T12:03:22.736Z,22.56
2022-08-17T12:05:53.601Z,22.68
2022-08-17T12:08:22.051Z,22.99
2022-08-17T12:11:11.814Z,23.12
2022-08-17T12:13:52.212Z,23.32
2022-08-17T12:16:21.682Z,23.41
2022-08-17T12:18:57.705Z,22.82
2022-08-17T12:21:40.890Z,22.51
2022-08-17T12:24:31.683Z,21.75
2022-08-17T12:27:04.570Z,21.91
2022-08-17T12:29:35.600Z,22.87
2022-08-17T12:32:07.290Z,23.17
2022-08-17T12:34:40.054Z,23.49
2022-08-17T12:37:15.319Z,23.83
2022-08-17T12:39:53.350Z,24.12
2022-08-17T12:42:27.443Z,24.07
2022-08-17T12:44:54.280Z,24.20
2022-08-17T12:47:23.132Z,23.96
2022-08-17T12:49:52.697Z,23.57
2022-08-17T12:52:29.697Z,23.48
2022-08-17T12:54:56.467Z,22.84
2022-08-17T12:57:25.827Z,22.67
2022-08-17T12:59:59.000Z,22.62
2022-08-17T13:02:40.305Z,23.09
2022-08-17T13:05:17.959Z,23.40
2022-08-17T13:07:46.741Z,23.76
2022-08-17T13:10:19.607Z,24.25
2022-08-17T13:12:48.162Z,24.64
2022-08-17T13:15:44.379Z,24.52
2022-08-17T13:18:33.934Z,24.66
2022-08-17T13:21:01.310Z,25.07
2022-08-17T13:23:29.811Z,24.06
2022-08-17T13:26:03.543Z,23.07
2022-08-17T13:28:36.294Z,23.36
2022-08-17T13:31:21.704Z,23.70
2022-08-17T13:33:48.562Z,23.99
2022-08-17T13:36:32.157Z,24.12
2022-08-17T13:39:21.933Z,24.23
2022-08-17T13:41:50.895Z,24.26
2022-08-17T13:44:40.600Z,24.46
2022-08-17T13:47:19.017Z,24.53
2022-08-17T13:49:49.078Z,24.54
2022-08-17T13:52:31.512Z,24.38
2022-08-17T13:55:05.512Z,24.23
2022-08-17T13:57:32.441Z,24.28
2022-08-17T14:00:35.569Z,24.13
2022-08-17T14:03:04.103Z,24.39
2022-08-17T14:05:32.454Z,24.50
2022-08-17T14:08:06.728Z,24.51
2022-08-17T14:10:36.667Z,24.68
2022-08-17T14:13:04.147Z,24.51
2022-08-17T14:15:53.907Z,24.51
2022-08-17T14:18:35.716Z,24.50
2022-08-17T14:21:08.597Z,24.48
2022-08-17T14:23:36.827Z,24.57
2022-08-17T14:26:04.866Z,24.74
2022-08-17T14:28:31.994Z,24.88
2022-08-17T14:31:00.862Z,24.83
2022-08-17T14:33:29.071Z,24.82
2022-08-17T14:35:57.639Z,24.78
2022-08-17T14:38:24.804Z,24.80
2022-08-17T14:40:52.087Z,24.12
2022-08-17T14:43:20.577Z,23.58
2022-08-17T14:45:47.799Z,23.53
2022-08-17T14:48:14.622Z,23.45
2022-08-17T14:50:43.299Z,23.73
2022-08-17T14:53:16.548Z,23.85
2022-08-17T14:55:46.860Z,23.83
2022-08-17T14:58:14.252Z,23.33
2022-08-17T15:00:43.173Z,23.04
2022-08-17T15:03:11.613Z,23.03
2022-08-17T15:08:07.234Z,23.04
2022-08-17T15:10:34.483Z,23.30
2022-08-17T15:13:01.445Z,23.26
2022-08-17T15:15:29.234Z,23.20
2022-08-17T15:17:56.274Z,23.02
2022-08-17T15:20:28.247Z,22.84
2022-08-17T15:22:57.434Z,22.73
2022-08-17T15:25:32.641Z,22.46
2022-08-17T15:28:00.407Z,22.46
2022-08-17T15:30:28.448Z,22.29
2022-08-17T15:32:57.812Z,22.04
2022-08-17T15:35:29.043Z,22.09
2022-08-17T15:38:06.207Z,22.04
2022-08-17T15:40:37.561Z,21.96
2022-08-17T15:43:11.733Z,21.93
2022-08-17T15:45:39.562Z,21.83
2022-08-17T15:48:07.121Z,21.55
2022-08-17T15:50:34.219Z,21.56
2022-08-17T15:53:02.353Z,21.44
2022-08-17T15:55:31.663Z,21.40
2022-08-17T15:57:59.296Z,21.27
2022-08-17T16:00:28.808Z,21.23
2022-08-17T16:03:46.107Z,21.11
2022-08-17T16:05:45.000Z,21.01
2022-08-17T16:08:18.533Z,21.05
2022-08-17T16:10:48.746Z,21.02
2022-08-17T16:13:17.166Z,20.97
2022-08-17T16:15:49.722Z,20.80
2022-08-17T16:18:31.236Z,20.87
2022-08-17T16:21:23.936Z,20.73
2022-08-17T16:23:56.416Z,20.67
2022-08-17T16:26:24.588Z,20.69
2022-08-17T16:28:51.641Z,20.69
2022-08-17T16:31:18.892Z,20.60
2022-08-17T16:34:16.046Z,20.15
2022-08-17T16:36:33.311Z,19.95
2022-08-17T16:39:01.638Z,20.01
2022-08-17T16:41:44.658Z,20.05
2022-08-17T16:44:20.619Z,20.05
2022-08-17T16:46:48.932Z,20.08
2022-08-17T16:49:35.358Z,20.07
2022-08-17T16:52:04.696Z,20.14
2022-08-17T16:54:31.646Z,20.14
2022-08-17T16:56:58.478Z,20.14
2022-08-17T16:59:30.088Z,20.12
2022-08-17T17:02:05.065Z,20.14
2022-08-17T17:04:35.092Z,20.17
2022-08-17T17:08:03.770Z,20.10
2022-08-17T17:10:43.756Z,20.08
2022-08-17T17:13:21.131Z,20.02
2022-08-17T17:15:48.059Z,20.12
2022-08-17T17:18:16.335Z,20.16
2022-08-17T17:20:50.858Z,20.06
2022-08-17T17:23:41.411Z,19.97
2022-08-17T17:26:14.486Z,19.94
2022-08-17T17:28:42.869Z,19.90
2022-08-17T17:31:16.581Z,19.83
2022-08-17T17:33:52.751Z,19.73
2022-08-17T17:36:37.892Z,19.51
2022-08-17T17:39:13.515Z,19.45
2022-08-17T17:41:57.449Z,19.36
2022-08-17T17:44:47.283Z,19.46
2022-08-17T17:47:16.788Z,19.52
2022-08-17T17:49:49.208Z,19.46
2022-08-17T17:52:38.526Z,19.49
2022-08-17T17:55:45.666Z,19.47
2022-08-17T17:58:44.144Z,19.44
2022-08-17T18:01:43.400Z,19.41
2022-08-17T18:04:30.579Z,19.36
2022-08-17T18:07:44.870Z,19.44
2022-08-17T18:10:40.209Z,19.34
2022-08-17T18:13:28.653Z,19.20
2022-08-17T18:15:56.801Z,19.10
2022-08-17T18:18:38.161Z,19.05
2022-08-17T18:21:24.081Z,18.92
2022-08-17T18:24:03.775Z,18.87
2022-08-17T18:26:33.944Z,18.78
2022-08-17T18:29:02.739Z,18.69
2022-08-17T18:31:29.931Z,18.59
2022-08-17T18:34:45.876Z,18.45
2022-08-17T18:37:11.029Z,18.46
2022-08-17T18:39:43.035Z,18.52
2022-08-17T18:42:26.726Z,18.40
2022-08-17T18:44:55.303Z,18.41
2022-08-17T18:47:29.536Z,18.37
2022-08-17T18:50:18.230Z,18.34
2022-08-17T18:52:48.367Z,18.29
2022-08-17T18:55:23.954Z,18.23
2022-08-17T18:57:52.646Z,18.20
2022-08-17T19:00:40.709Z,18.14
2022-08-17T19:03:18.533Z,18.08
2022-08-17T19:05:50.024Z,17.99
2022-08-17T19:08:24.445Z,17.94
2022-08-17T19:11:10.079Z,17.87
2022-08-17T19:13:57.909Z,17.76
2022-08-17T19:16:29.319Z,17.71
2022-08-17T19:19:10.182Z,17.67
2022-08-17T19:21:43.268Z,17.62
2022-08-17T19:24:19.878Z,17.51
2022-08-17T19:26:56.582Z,17.43
2022-08-17T19:29:44.243Z,17.45
2022-08-17T19:32:16.527Z,17.41
2022-08-17T19:34:44.825Z,17.37
2022-08-17T19:37:37.650Z,17.25
2022-08-17T19:40:50.583Z,17.26
2022-08-17T19:43:25.600Z,17.20
2022-08-17T19:46:15.390Z,17.14
2022-08-17T19:48:57.949Z,17.08
2022-08-17T19:51:36.289Z,16.99
2022-08-17T19:54:20.586Z,17.00
2022-08-17T19:57:10.182Z,16.96
2022-08-17T20:00:02.078Z,16.94
2022-08-17T20:02:35.918Z,16.87
2022-08-17T20:05:08.963Z,16.82
2022-08-17T20:07:51.542Z,16.75
2022-08-17T20:10:54.661Z,16.71
2022-08-17T20:13:34.026Z,16.64
2022-08-17T20:16:02.800Z,16.61
2022-08-17T20:18:38.489Z,16.56
2022-08-17T20:21:27.195Z,16.51
2022-08-17T20:24:13.289Z,16.48
2022-08-17T20:27:10.184Z,16.41
2022-08-17T20:30:11.078Z,16.30
2022-08-17T20:32:41.189Z,16.20
2022-08-17T20:35:30.562Z,16.09
2022-08-17T20:37:57.696Z,15.97
2022-08-17T20:40:38.518Z,15.97
2022-08-17T20:43:30.201Z,15.88
2022-08-17T20:46:21.524Z,15.76
2022-08-17T20:48:52.831Z,15.65
2022-08-17T20:51:34.868Z,15.57
2022-08-17T20:54:42.064Z,15.56
2022-08-17T20:57:14.311Z,15.50
2022-08-17T20:59:45.107Z,15.45
2022-08-17T21:02:20.207Z,15.39
2022-08-17T21:05:00.349Z,15.35
2022-08-17T21:07:30.365Z,15.27
2022-08-17T21:10:39.295Z,15.21
2022-08-17T21:13:12.607Z,15.15
2022-08-17T21:15:42.661Z,15.08
2022-08-17T21:18:18.670Z,14.98
2022-08-17T21:21:07.472Z,14.83
2022-08-17T21:24:06.530Z,14.78
2022-08-17T21:26:52.211Z,14.75
2022-08-17T21:29:31.888Z,14.63
2022-08-17T21:32:00.630Z,14.61
2022-08-17T21:34:45.462Z,14.53
2022-08-17T21:37:24.026Z,14.47
2022-08-17T21:40:13.753Z,14.39
2022-08-17T21:42:49.755Z,14.27
2022-08-17T21:45:36.767Z,14.23
2022-08-17T21:48:24.860Z,14.14
2022-08-17T21:51:14.181Z,14.08
2022-08-17T21:53:56.067Z,14.03
2022-08-17T21:56:29.683Z,14.00
2022-08-17T21:59:01.345Z,13.95
2022-08-17T22:01:34.815Z,13.92
2022-08-17T22:04:04.241Z,13.88
2022-08-17T22:06:38.611Z,13.86
2022-08-17T22:09:10.776Z,13.84
2022-08-17T22:11:53.853Z,13.80
2022-08-17T22:14:52.532Z,13.82
2022-08-17T22:17:26.758Z,13.72
2022-08-17T22:20:01.740Z,13.75
2022-08-17T22:23:15.321Z,13.71
2022-08-17T22:26:02.496Z,13.64
2022-08-17T22:28:38.912Z,13.58
2022-08-17T22:31:08.372Z,13.52
2022-08-17T22:33:46.732Z,13.48
2022-08-17T22:36:13.779Z,13.45
2022-08-17T22:38:42.004Z,13.41
2022-08-17T22:41:36.483Z,13.40
2022-08-17T22:44:28.290Z,13.39
2022-08-17T22:46:56.079Z,13.37
2022-08-17T22:49:37.008Z,13.37
2022-08-17T22:52:07.217Z,13.37
2022-08-17T22:54:52.761Z,13.34
2022-08-17T22:57:56.725Z,13.28
2022-08-17T23:00:41.947Z,13.37
2022-08-17T23:03:14.214Z,13.36
2022-08-17T23:05:45.207Z,13.37
2022-08-17T23:08:13.991Z,13.35
2022-08-17T23:10:43.101Z,13.33
2022-08-17T23:13:12.180Z,13.38
2022-08-17T23:15:42.239Z,13.37
2022-08-17T23:18:09.546Z,13.31
2022-08-17T23:20:39.464Z,13.36
2022-08-17T23:23:09.130Z,13.36
2022-08-17T23:25:36.842Z,13.34
2022-08-17T23:28:09.308Z,13.34
2022-08-17T23:30:39.933Z,13.33
2022-08-17T23:33:18.265Z,13.33
2022-08-17T23:35:45.510Z,13.32
2022-08-17T23:38:13.892Z,13.32
2022-08-17T23:40:41.194Z,13.34
2022-08-17T23:43:23.491Z,13.29
2022-08-17T23:45:54.121Z,13.32
2022-08-17T23:48:36.132Z,13.35
2022-08-17T23:51:19.192Z,13.39
2022-08-17T23:53:50.234Z,13.37
2022-08-17T23:56:23.015Z,13.36
2022-08-17T23:58:50.017Z,13.28
